createdAt,value
2022-10-09T00:01:31.736Z,100411.84
2022-10-09T00:04:01.232Z,100404.47
2022-10-09T00:06:32.753Z,100408.00
2022-10-09T00:09:03.291Z,100409.16
2022-10-09T00:11:35.077Z,100405.06
2022-10-09T00:14:04.478Z,100400.19
2022-10-09T00:16:33.183Z,100405.44
2022-10-09T00:19:01.924Z,100411.22
2022-10-09T00:21:32.386Z,100406.81
2022-10-09T00:24:02.972Z,100410.22
2022-10-09T00:26:33.392Z,100403.41
2022-10-09T00:29:02.197Z,100406.81
2022-10-09T00:31:30.892Z,100404.00
2022-10-09T00:33:59.508Z,100411.63
2022-10-09T00:36:28.623Z,100405.78
2022-10-09T00:38:57.793Z,100415.16
2022-10-09T00:41:28.777Z,100411.94
2022-10-09T00:43:59.880Z,100419.63
2022-10-09T00:46:38.038Z,100426.28
2022-10-09T00:49:15.744Z,100432.69
2022-10-09T00:51:47.476Z,100433.97
2022-10-09T00:54:19.436Z,100438.50
2022-10-09T00:56:48.507Z,100441.19
2022-10-09T00:59:19.446Z,100441.34
2022-10-09T01:01:47.925Z,100450.44
2022-10-09T01:04:16.751Z,100446.00
2022-10-09T01:06:58.927Z,100447.88
2022-10-09T01:09:35.084Z,100445.19
2022-10-09T01:12:14.082Z,100446.31
2022-10-09T01:14:53.125Z,100452.00
2022-10-09T01:17:29.638Z,100453.69
2022-10-09T01:20:28.570Z,100449.31
2022-10-09T01:23:32.449Z,100448.31
2022-10-09T01:26:12.839Z,100454.00
2022-10-09T01:28:45.917Z,100452.28
2022-10-09T01:31:16.188Z,100460.22
2022-10-09T01:33:45.801Z,100461.22
2022-10-09T01:36:16.467Z,100459.50
2022-10-09T01:38:46.644Z,100463.34
2022-10-09T01:41:15.263Z,100465.06
2022-10-09T01:43:45.314Z,100460.66
2022-10-09T01:46:25.206Z,100463.50
2022-10-09T01:49:04.892Z,100461.78
2022-10-09T01:51:41.336Z,100464.66
2022-10-09T01:54:12.706Z,100473.56
2022-10-09T01:56:42.548Z,100475.41
2022-10-09T01:59:16.972Z,100463.78
2022-10-09T02:01:48.690Z,100463.94
2022-10-09T02:04:19.649Z,100469.47
2022-10-09T02:06:49.502Z,100465.09
2022-10-09T02:09:19.827Z,100465.94
2022-10-09T02:11:54.561Z,100466.94
2022-10-09T02:14:25.531Z,100475.97
2022-10-09T02:16:59.810Z,100473.28
2022-10-09T02:19:35.056Z,100475.28
2022-10-09T02:22:09.853Z,100483.34
2022-10-09T02:24:40.932Z,100475.44
2022-10-09T02:27:10.011Z,100472.75
2022-10-09T02:29:42.710Z,100477.97
2022-10-09T02:32:11.985Z,100484.34
2022-10-09T02:34:41.261Z,100491.44
2022-10-09T02:37:10.286Z,100479.69
2022-10-09T02:39:39.026Z,100486.19
2022-10-09T02:42:07.656Z,100484.34
2022-10-09T02:44:36.282Z,100472.88
2022-10-09T02:47:06.472Z,100485.19
2022-10-09T02:49:35.080Z,100486.03
2022-10-09T02:52:03.634Z,100483.66
2022-10-09T02:54:32.430Z,100487.19
2022-10-09T02:57:01.212Z,100483.66
2022-10-09T02:59:29.951Z,100488.19
2022-10-09T03:01:58.738Z,100492.72
2022-10-09T03:04:28.920Z,100498.78
2022-10-09T03:06:57.521Z,100500.81
2022-10-09T03:09:30.259Z,100506.19
2022-10-09T03:12:01.620Z,100514.94
2022-10-09T03:14:30.239Z,100516.94
2022-10-09T03:16:58.956Z,100511.84
2022-10-09T03:19:28.992Z,100518.94
2022-10-09T03:21:57.500Z,100506.44
2022-10-09T03:24:26.023Z,100515.22
2022-10-09T03:26:54.588Z,100517.09
2022-10-09T03:29:23.210Z,100516.25
2022-10-09T03:31:53.478Z,100507.16
2022-10-09T03:34:22.224Z,100513.38
2022-10-09T03:36:52.209Z,100509.84
2022-10-09T03:39:20.901Z,100504.47
2022-10-09T03:41:49.610Z,100513.38
2022-10-09T03:44:18.236Z,100509.13
2022-10-09T03:46:48.342Z,100503.75
2022-10-09T03:49:18.176Z,100506.44
2022-10-09T03:51:46.655Z,100507.31
2022-10-09T03:54:16.802Z,100504.75
2022-10-09T03:56:45.498Z,100508.47
2022-10-09T03:59:14.247Z,100515.53
2022-10-09T04:01:42.997Z,100520.06
2022-10-09T04:04:11.547Z,100515.53
2022-10-09T04:06:40.162Z,100518.22
2022-10-09T04:09:08.941Z,100528.97
2022-10-09T04:11:38.985Z,100521.91
2022-10-09T04:14:07.714Z,100533.34
2022-10-09T04:16:36.385Z,100531.97
2022-10-09T04:19:05.129Z,100532.09
2022-10-09T04:21:34.079Z,100555.59
2022-10-09T04:24:03.830Z,100558.28
2022-10-09T04:26:32.580Z,100581.81
2022-10-09T04:29:02.743Z,100599.97
2022-10-09T04:31:31.790Z,100601.34
2022-10-09T04:34:00.634Z,100593.56
2022-10-09T04:36:29.383Z,100597.50
2022-10-09T04:38:58.280Z,100576.09
2022-10-09T04:41:27.232Z,100576.22
2022-10-09T04:43:57.058Z,100582.31
2022-10-09T04:46:27.312Z,100580.91
2022-10-09T04:48:56.127Z,100591.50
2022-10-09T04:51:24.874Z,100590.66
2022-10-09T04:53:58.316Z,100583.84
2022-10-09T04:56:29.038Z,100591.09
2022-10-09T04:58:57.643Z,100594.19
2022-10-09T05:01:31.913Z,100595.19
2022-10-09T05:04:03.117Z,100599.56
2022-10-09T05:06:31.713Z,100608.31
2022-10-09T05:09:00.309Z,100612.13
2022-10-09T05:11:29.197Z,100611.97
2022-10-09T05:13:59.325Z,100616.50
2022-10-09T05:16:31.755Z,100621.84
2022-10-09T05:19:01.614Z,100629.94
2022-10-09T05:21:31.219Z,100630.78
2022-10-09T05:23:59.797Z,100628.66
2022-10-09T05:26:28.744Z,100628.97
2022-10-09T05:28:57.505Z,100633.53
2022-10-09T05:31:28.113Z,100637.09
2022-10-09T05:34:01.147Z,100644.75
2022-10-09T05:36:30.043Z,100639.09
2022-10-09T05:39:00.795Z,100639.53
2022-10-09T05:41:30.840Z,100656.09
2022-10-09T05:44:03.302Z,100660.06
2022-10-09T05:46:32.463Z,100658.91
2022-10-09T05:49:05.424Z,100660.34
2022-10-09T05:51:35.640Z,100665.38
2022-10-09T05:54:05.669Z,100673.63
2022-10-09T05:56:35.498Z,100677.72
2022-10-09T05:59:06.809Z,100676.59
2022-10-09T06:01:38.336Z,100684.09
2022-10-09T06:04:11.271Z,100690.34
2022-10-09T06:06:41.383Z,100708.72
2022-10-09T06:09:12.309Z,100698.75
2022-10-09T06:11:42.607Z,100707.84
2022-10-09T06:14:13.208Z,100705.69
2022-10-09T06:16:46.224Z,100713.28
2022-10-09T06:19:18.511Z,100718.78
2022-10-09T06:21:47.404Z,100723.41
2022-10-09T06:24:25.794Z,100731.75
2022-10-09T06:26:57.680Z,100736.69
2022-10-09T06:29:27.460Z,100733.41
2022-10-09T06:31:56.436Z,100735.50
2022-10-09T06:34:26.835Z,100742.84
2022-10-09T06:36:56.052Z,100746.53
2022-10-09T06:39:26.794Z,100752.75
2022-10-09T06:41:55.572Z,100759.81
2022-10-09T06:44:43.668Z,100758.69
2022-10-09T06:47:12.988Z,100767.94
2022-10-09T06:49:43.552Z,100772.66
2022-10-09T06:52:12.369Z,100782.34
2022-10-09T06:54:41.570Z,100785.38
2022-10-09T06:57:10.406Z,100781.00
2022-10-09T06:59:39.592Z,100791.25
2022-10-09T07:02:08.493Z,100787.00
2022-10-09T07:04:37.349Z,100787.84
2022-10-09T07:07:08.168Z,100790.25
2022-10-09T07:09:37.387Z,100795.94
2022-10-09T07:12:06.667Z,100801.25
2022-10-09T07:14:35.548Z,100803.19
2022-10-09T07:17:06.026Z,100809.31
2022-10-09T07:19:34.746Z,100805.34
2022-10-09T07:22:03.483Z,100812.56
2022-10-09T07:24:33.826Z,100820.06
2022-10-09T07:27:02.627Z,100812.09
2022-10-09T07:29:31.464Z,100823.34
2022-10-09T07:32:00.927Z,100827.03
2022-10-09T07:34:29.981Z,100829.03
2022-10-09T07:36:58.705Z,100827.34
2022-10-09T07:39:27.503Z,100838.56
2022-10-09T07:41:57.917Z,100842.50
2022-10-09T07:44:26.749Z,100849.63
2022-10-09T07:46:55.584Z,100856.97
2022-10-09T07:49:24.805Z,100864.75
2022-10-09T07:51:53.689Z,100857.25
2022-10-09T07:54:22.632Z,100865.53
2022-10-09T07:56:51.425Z,100871.75
2022-10-09T07:59:22.147Z,100876.28
2022-10-09T08:01:52.106Z,100875.59
2022-10-09T08:04:21.067Z,100871.50
2022-10-09T08:06:50.009Z,100884.28
2022-10-09T08:09:20.763Z,100885.31
2022-10-09T08:11:49.568Z,100892.31
2022-10-09T08:14:19.583Z,100891.88
2022-10-09T08:16:50.084Z,100899.84
2022-10-09T08:19:19.030Z,100910.50
2022-10-09T08:21:47.688Z,100900.84
2022-10-09T08:24:17.331Z,100912.31
2022-10-09T08:26:46.324Z,100913.91
2022-10-09T08:29:16.729Z,100920.41
2022-10-09T08:31:46.539Z,100919.72
2022-10-09T08:34:16.831Z,100920.69
2022-10-09T08:36:46.385Z,100935.19
2022-10-09T08:39:16.268Z,100931.66
2022-10-09T08:41:47.997Z,100937.72
2022-10-09T08:44:20.876Z,100941.72
2022-10-09T08:47:05.115Z,100944.25
2022-10-09T08:49:45.532Z,100952.34
2022-10-09T08:52:23.020Z,100944.84
2022-10-09T08:54:52.709Z,100950.94
2022-10-09T08:57:23.662Z,100962.31
2022-10-09T08:59:52.540Z,100953.50
2022-10-09T09:02:42.904Z,100955.91
2022-10-09T09:05:27.517Z,100965.44
2022-10-09T09:08:05.726Z,100961.75
2022-10-09T09:10:42.304Z,100962.16
2022-10-09T09:13:27.047Z,100962.88
2022-10-09T09:16:02.273Z,100966.72
2022-10-09T09:18:42.730Z,100975.22
2022-10-09T09:21:18.878Z,100976.78
2022-10-09T09:23:49.652Z,100985.44
2022-10-09T09:26:20.187Z,100981.47
2022-10-09T09:28:53.769Z,100989.13
2022-10-09T09:31:26.903Z,100992.28
2022-10-09T09:34:03.000Z,100990.25
2022-10-09T09:36:37.077Z,100999.06
2022-10-09T09:40:07.866Z,101002.91
2022-10-09T09:41:57.154Z,100992.56
2022-10-09T09:44:27.779Z,101004.81
2022-10-09T09:46:56.819Z,101005.22
2022-10-09T09:49:29.431Z,101006.91
2022-10-09T09:52:02.365Z,100997.66
2022-10-09T09:54:32.073Z,101003.88
2022-10-09T09:57:21.652Z,101015.41
2022-10-09T09:59:50.867Z,101020.56
2022-10-09T10:02:22.408Z,101020.41
2022-10-09T10:04:52.221Z,101027.91
2022-10-09T10:07:36.907Z,101033.00
2022-10-09T10:10:14.779Z,101034.16
2022-10-09T10:12:45.007Z,101035.75
2022-10-09T10:15:22.044Z,101040.00
2022-10-09T10:17:56.661Z,101029.75
2022-10-09T10:20:25.463Z,101037.97
2022-10-09T10:22:58.158Z,101030.47
2022-10-09T10:25:31.341Z,101036.16
2022-10-09T10:28:05.277Z,101040.53
2022-10-09T10:30:37.100Z,101035.28
2022-10-09T10:33:16.556Z,101039.09
2022-10-09T10:35:46.017Z,101045.75
2022-10-09T10:38:24.422Z,101047.88
2022-10-09T10:40:58.238Z,101043.88
2022-10-09T10:43:34.861Z,101047.94
2022-10-09T10:46:12.407Z,101055.63
2022-10-09T10:48:43.705Z,101060.34
2022-10-09T10:51:32.458Z,101056.94
2022-10-09T10:54:13.172Z,101047.81
2022-10-09T10:56:47.080Z,101053.47
2022-10-09T10:59:30.880Z,101047.47
2022-10-09T11:02:32.607Z,101060.91
2022-10-09T11:05:16.921Z,101056.91
2022-10-09T11:07:59.180Z,101065.25
2022-10-09T11:10:39.261Z,101062.03
2022-10-09T11:13:16.089Z,101067.16
2022-10-09T11:15:58.938Z,101068.53
2022-10-09T11:18:46.700Z,101076.47
2022-10-09T11:21:26.798Z,101073.22
2022-10-09T11:24:20.068Z,101072.38
2022-10-09T11:27:03.130Z,101081.97
2022-10-09T11:29:38.606Z,101075.78
2022-10-09T11:32:15.455Z,101086.00
2022-10-09T11:34:48.308Z,101088.84
2022-10-09T11:37:22.439Z,101096.25
2022-10-09T11:39:51.027Z,101093.53
2022-10-09T11:42:24.712Z,101090.81
2022-10-09T11:45:06.794Z,101090.34
2022-10-09T11:47:43.592Z,101096.16
2022-10-09T11:50:24.940Z,101102.75
2022-10-09T11:53:01.295Z,101104.78
2022-10-09T11:55:31.963Z,101101.78
2022-10-09T11:58:22.508Z,101100.03
2022-10-09T12:00:54.098Z,101102.72
2022-10-09T12:03:30.250Z,101107.06
2022-10-09T12:06:08.656Z,101114.16
2022-10-09T12:08:39.653Z,101117.72
2022-10-09T12:11:14.431Z,101121.72
2022-10-09T12:13:52.764Z,101120.44
2022-10-09T12:16:42.800Z,101118.63
2022-10-09T12:19:23.596Z,101126.41
2022-10-09T12:21:56.475Z,101129.69
2022-10-09T12:24:27.402Z,101128.69
2022-10-09T12:27:01.255Z,101128.97
2022-10-09T12:29:35.729Z,101126.00
2022-10-09T12:32:09.239Z,101124.13
2022-10-09T12:34:44.683Z,101131.81
2022-10-09T12:37:18.947Z,101128.13
2022-10-09T12:39:49.308Z,101131.53
2022-10-09T12:42:24.660Z,101128.28
2022-10-09T12:44:56.782Z,101126.72
2022-10-09T12:47:28.686Z,101136.81
2022-10-09T12:50:03.008Z,101143.19
2022-10-09T12:52:32.752Z,101140.94
2022-10-09T12:55:03.346Z,101141.06
2022-10-09T12:57:32.249Z,101142.47
2022-10-09T13:00:02.717Z,101147.00
2022-10-09T13:02:31.918Z,101148.16
2022-10-09T13:05:02.361Z,101152.38
2022-10-09T13:07:32.726Z,101159.63
2022-10-09T13:10:04.289Z,101156.25
2022-10-09T13:12:33.994Z,101166.78
2022-10-09T13:15:07.228Z,101163.09
2022-10-09T13:17:37.943Z,101168.78
2022-10-09T13:20:27.522Z,101174.19
2022-10-09T13:22:57.882Z,101172.63
2022-10-09T13:25:27.638Z,101168.78
2022-10-09T13:27:56.469Z,101180.84
2022-10-09T13:30:28.448Z,101176.59
2022-10-09T13:32:57.894Z,101180.56
2022-10-09T13:35:26.498Z,101183.28
2022-10-09T13:37:55.179Z,101186.97
2022-10-09T13:40:23.976Z,101181.00
2022-10-09T13:42:57.102Z,101186.28
2022-10-09T13:45:27.202Z,101186.38
2022-10-09T13:47:55.879Z,101193.34
2022-10-09T13:50:24.447Z,101186.69
2022-10-09T13:52:53.142Z,101196.66
2022-10-09T13:55:22.057Z,101199.03
2022-10-09T13:57:50.886Z,101191.09
2022-10-09T14:00:20.000Z,101197.06
2022-10-09T14:02:52.513Z,101205.44
2022-10-09T14:05:21.800Z,101200.03
2022-10-09T14:07:51.580Z,101204.28
2022-10-09T14:10:23.897Z,101211.13
2022-10-09T14:12:52.819Z,101207.69
2022-10-09T14:15:21.462Z,101205.00
2022-10-09T14:17:52.018Z,101212.50
2022-10-09T14:20:20.984Z,101225.88
2022-10-09T14:22:49.823Z,101224.84
2022-10-09T14:25:18.742Z,101236.25
2022-10-09T14:27:47.309Z,101235.22
2022-10-09T14:30:16.189Z,101234.94
2022-10-09T14:32:44.917Z,101236.63
2022-10-09T14:35:19.272Z,101238.88
2022-10-09T14:37:50.076Z,101247.34
2022-10-09T14:40:18.802Z,101248.75
2022-10-09T14:42:47.763Z,101244.31
2022-10-09T14:45:16.658Z,101237.69
2022-10-09T14:47:45.417Z,101250.28
2022-10-09T14:50:15.360Z,101242.75
2022-10-09T14:52:44.880Z,101250.56
2022-10-09T14:55:13.638Z,101255.75
2022-10-09T14:57:42.245Z,101259.44
2022-10-09T15:00:12.839Z,101258.28
2022-10-09T15:05:16.534Z,101272.38
2022-10-09T15:07:45.211Z,101275.00
2022-10-09T15:10:15.086Z,101272.97
2022-10-09T15:12:43.605Z,101279.59
2022-10-09T15:15:12.755Z,101284.41
2022-10-09T15:17:41.386Z,101289.59
2022-10-09T15:20:10.778Z,101290.47
2022-10-09T15:22:40.881Z,101297.41
2022-10-09T15:25:10.334Z,101301.63
2022-10-09T15:27:38.939Z,101305.09
2022-10-09T15:30:08.645Z,101301.94
2022-10-09T15:32:37.245Z,101311.97
2022-10-09T15:35:06.637Z,101305.88
2022-10-09T15:37:35.224Z,101316.00
2022-10-09T15:40:05.581Z,101313.72
2022-10-09T15:42:35.357Z,101320.75
2022-10-09T15:45:04.191Z,101323.94
2022-10-09T15:47:50.080Z,101313.28
2022-10-09T15:50:19.568Z,101323.97
2022-10-09T15:52:48.459Z,101332.72
2022-10-09T15:55:18.734Z,101341.47
2022-10-09T15:57:47.321Z,101338.63
2022-10-09T16:00:16.893Z,101343.13
2022-10-09T16:02:45.442Z,101350.16
2022-10-09T16:05:14.091Z,101348.69
2022-10-09T16:07:42.679Z,101340.16
2022-10-09T16:10:11.938Z,101355.25
2022-10-09T16:12:41.912Z,101356.84
2022-10-09T16:15:11.390Z,101363.81
2022-10-09T16:17:40.110Z,101358.53
2022-10-09T16:20:09.397Z,101357.41
2022-10-09T16:22:37.939Z,101365.53
2022-10-09T16:25:07.177Z,101366.19
2022-10-09T16:27:35.922Z,101373.59
2022-10-09T16:30:07.600Z,101373.50
2022-10-09T16:32:36.178Z,101382.31
2022-10-09T16:35:05.027Z,101381.41
2022-10-09T16:37:33.602Z,101387.25
2022-10-09T16:40:03.680Z,101383.06
2022-10-09T16:42:32.811Z,101387.47
2022-10-09T16:45:02.269Z,101384.56
2022-10-09T16:47:34.268Z,101391.88
2022-10-09T16:50:03.042Z,101397.47
2022-10-09T16:52:31.779Z,101394.78
2022-10-09T16:55:00.812Z,101400.16
2022-10-09T16:57:29.609Z,101395.03
2022-10-09T16:59:58.631Z,101399.41
2022-10-09T17:02:27.101Z,101400.16
2022-10-09T17:04:57.155Z,101400.38
2022-10-09T17:07:25.968Z,101400.59
2022-10-09T17:09:55.211Z,101404.25
2022-10-09T17:12:23.932Z,101408.34
2022-10-09T17:14:52.543Z,101409.19
2022-10-09T17:17:21.052Z,101415.63
2022-10-09T17:22:19.529Z,101422.41
2022-10-09T17:24:48.170Z,101422.84
2022-10-09T17:27:16.700Z,101428.44
2022-10-09T17:29:45.319Z,101425.25
2022-10-09T17:32:13.793Z,101433.47
2022-10-09T17:34:46.009Z,101433.47
2022-10-09T17:37:15.002Z,101437.66
2022-10-09T17:39:49.717Z,101435.22
2022-10-09T17:42:20.754Z,101438.84
2022-10-09T17:44:49.256Z,101440.81
2022-10-09T17:47:17.892Z,101447.03
2022-10-09T17:49:46.624Z,101445.59
2022-10-09T17:52:15.282Z,101454.31
2022-10-09T17:54:45.352Z,101453.88
2022-10-09T17:57:13.968Z,101462.69
2022-10-09T17:59:42.588Z,101466.97
2022-10-09T18:02:12.107Z,101466.13
2022-10-09T18:04:41.047Z,101476.22
2022-10-09T18:07:10.190Z,101475.69
2022-10-09T18:09:39.828Z,101478.88
2022-10-09T18:12:10.070Z,101483.59
2022-10-09T18:14:38.712Z,101482.94
2022-10-09T18:17:07.288Z,101491.19
2022-10-09T18:19:35.957Z,101494.09
2022-10-09T18:22:04.757Z,101495.50
2022-10-09T18:24:33.511Z,101497.00
2022-10-09T18:27:02.159Z,101502.38
2022-10-09T18:29:32.381Z,101499.91
2022-10-09T18:32:00.921Z,101500.56
2022-10-09T18:34:29.603Z,101502.38
2022-10-09T18:36:58.904Z,101509.34
2022-10-09T18:39:28.860Z,101515.72
2022-10-09T18:41:58.483Z,101514.00
2022-10-09T18:44:27.280Z,101519.78
2022-10-09T18:46:59.783Z,101521.91
2022-10-09T18:49:31.420Z,101522.53
2022-10-09T18:52:01.293Z,101523.56
2022-10-09T18:54:31.196Z,101525.72
2022-10-09T18:57:00.004Z,101520.09
2022-10-09T18:59:28.574Z,101523.03
2022-10-09T19:01:58.669Z,101527.31
2022-10-09T19:04:27.407Z,101521.94
2022-10-09T19:06:56.148Z,101526.19
2022-10-09T19:09:24.898Z,101530.56
2022-10-09T19:11:53.906Z,101529.72
2022-10-09T19:14:22.684Z,101530.91
2022-10-09T19:16:51.256Z,101537.53
2022-10-09T19:19:21.378Z,101534.38
2022-10-09T19:21:49.980Z,101541.31
2022-10-09T19:24:18.652Z,101537.75
2022-10-09T19:26:47.264Z,101549.72
2022-10-09T19:29:16.020Z,101546.19
2022-10-09T19:31:44.743Z,101555.81
2022-10-09T19:34:13.339Z,101550.69
2022-10-09T19:36:44.478Z,101550.00
2022-10-09T19:39:13.324Z,101557.84
2022-10-09T19:41:42.444Z,101555.38
2022-10-09T19:44:11.211Z,101558.81
2022-10-09T19:46:41.764Z,101554.09
2022-10-09T19:49:10.503Z,101554.63
2022-10-09T19:51:39.373Z,101556.47
2022-10-09T19:54:11.883Z,101554.56
2022-10-09T19:56:42.083Z,101550.97
2022-10-09T19:59:12.095Z,101558.81
2022-10-09T20:01:40.826Z,101553.44
2022-10-09T20:04:11.403Z,101558.13
2022-10-09T20:06:40.965Z,101551.34
2022-10-09T20:09:12.427Z,101552.38
2022-10-09T20:11:41.149Z,101551.22
2022-10-09T20:14:10.984Z,101552.47
2022-10-09T20:16:41.030Z,101555.13
2022-10-09T20:19:09.688Z,101549.00
2022-10-09T20:21:38.270Z,101557.03
2022-10-09T20:24:08.531Z,101551.81
2022-10-09T20:26:42.808Z,101558.94
2022-10-09T20:29:11.781Z,101550.91
2022-10-09T20:31:40.441Z,101565.19
2022-10-09T20:34:09.122Z,101553.44
2022-10-09T20:36:39.703Z,101560.41
2022-10-09T20:39:13.207Z,101550.66
2022-10-09T20:41:44.255Z,101558.78
2022-10-09T20:44:13.103Z,101566.03
2022-10-09T20:46:42.740Z,101572.91
2022-10-09T20:49:13.595Z,101573.88
2022-10-09T20:51:42.769Z,101577.59
2022-10-09T20:54:18.130Z,101574.91
2022-10-09T20:56:48.970Z,101585.63
2022-10-09T20:59:18.512Z,101583.03
2022-10-09T21:01:47.565Z,101578.63
2022-10-09T21:04:16.243Z,101590.19
2022-10-09T21:06:44.727Z,101589.41
2022-10-09T21:09:13.430Z,101591.25
2022-10-09T21:11:42.885Z,101596.31
2022-10-09T21:14:13.280Z,101595.34
2022-10-09T21:16:42.103Z,101598.91
2022-10-09T21:19:12.947Z,101592.59
2022-10-09T21:21:41.550Z,101603.09
2022-10-09T21:24:10.169Z,101605.63
2022-10-09T21:26:39.484Z,101595.59
2022-10-09T21:29:08.533Z,101608.88
2022-10-09T21:31:38.735Z,101598.16
2022-10-09T21:34:08.245Z,101608.88
2022-10-09T21:36:56.246Z,101603.69
2022-10-09T21:39:31.407Z,101614.22
2022-10-09T21:42:00.201Z,101605.44
2022-10-09T21:44:29.102Z,101612.69
2022-10-09T21:46:59.292Z,101602.84
2022-10-09T21:49:29.732Z,101609.16
2022-10-09T21:51:58.464Z,101611.91
2022-10-09T21:54:27.587Z,101597.75
2022-10-09T21:56:56.159Z,101604.06
2022-10-09T21:59:24.925Z,101603.22
2022-10-09T22:01:53.641Z,101608.66
2022-10-09T22:04:23.925Z,101613.22
2022-10-09T22:06:52.629Z,101617.91
2022-10-09T22:09:21.260Z,101615.31
2022-10-09T22:11:50.001Z,101620.66
2022-10-09T22:14:18.577Z,101626.19
2022-10-09T22:16:47.216Z,101623.59
2022-10-09T22:19:15.883Z,101627.25
2022-10-09T22:21:45.987Z,101628.94
2022-10-09T22:24:14.670Z,101629.06
2022-10-09T22:26:43.189Z,101630.78
2022-10-09T22:29:11.777Z,101634.31
2022-10-09T22:31:40.382Z,101638.81
2022-10-09T22:34:10.273Z,101638.81
2022-10-09T22:36:38.834Z,101649.50
2022-10-09T22:39:09.352Z,101645.13
2022-10-09T22:41:38.198Z,101653.03
2022-10-09T22:44:08.436Z,101644.16
2022-10-09T22:46:39.335Z,101641.41
2022-10-09T22:49:09.751Z,101642.97
2022-10-09T22:51:38.456Z,101640.28
2022-10-09T22:54:09.144Z,101646.69
2022-10-09T22:56:40.169Z,101644.19
2022-10-09T22:59:09.030Z,101647.91
2022-10-09T23:01:40.701Z,101646.94
2022-10-09T23:04:12.548Z,101650.41
2022-10-09T23:06:41.812Z,101645.00
2022-10-09T23:09:14.553Z,101642.66
2022-10-09T23:11:43.815Z,101643.09
2022-10-09T23:14:13.300Z,101660.97
2022-10-09T23:16:42.689Z,101656.94
2022-10-09T23:19:11.795Z,101659.59
2022-10-09T23:21:42.198Z,101663.31
2022-10-09T23:24:15.565Z,101671.31
2022-10-09T23:26:44.291Z,101678.63
2022-10-09T23:29:16.886Z,101670.69
2022-10-09T23:31:46.426Z,101666.84
2022-10-09T23:34:15.130Z,101667.97
2022-10-09T23:36:43.806Z,101668.56
2022-10-09T23:39:14.259Z,101674.69
2022-10-09T23:41:42.936Z,101674.09
2022-10-09T23:44:11.413Z,101671.69
2022-10-09T23:46:40.101Z,101673.41
2022-10-09T23:49:08.790Z,101676.53
2022-10-09T23:51:38.209Z,101677.56
2022-10-09T23:54:07.362Z,101681.34
2022-10-09T23:56:38.577Z,101676.28
2022-10-09T23:59:07.981Z,101673.00
